Bei Facebook empfehlenBei Twitter postenGoogle plusPinterest

Das Wetter im Erzgebirge am 14.09.2015

Wetter und Klima am 14.09.2015 Holzhau im Erzgebirge (630m ü.NN)
Letzte gemessene Temperatur und Uhrzeit der Messung23:45:00 Uhr10.80 °C
Temperatur (Maximum / Höchstwert) und Uhrzeit der Messung16:45:00 Uhr18.00 °C
Temperatur (Minimum / Tiefstwert) und Uhrzeit der Messung23:30:0010.40 °C
Errechneter Absolutwert der Temperaturschwankungen zwischen Tmin und Tmax des Tages7.60 K
Errechnete Tagesmitteltemperatur14.07917 °C
Gesamt - Niederschlag des Tages (in flüssiger Form)0.00 Liter / m²
Luftdruck (Maximum / Höchstwert) und Zeitpunkt der Messung00:00:00 Uhr1006.80 hPa
Luftdruck (Minimum / Tiefstwert) und Zeitpunkt der Messung10:30:00 Uhr1003.30 hPa
Errechneter Absolutwert der Luftdruckschwankungen des Tages3.50 hPa
Höchste gemessene Windgeschwindigkeit und Uhrzeit der Messung02:00:00 Uhr9.00 km/h
Errechnete Windhäufigkeit in Relation zu den Messwerten des Tages28.12500 %
Niedrigste Windkühle (Windchill) und Zeitpunkt der Messung23:30:00 Uhr10.40 °C
Taupunkt (Maximum / Höchstwert) und Uhrzeit der Messung16:15:00 Uhr15.00 °C
Taupunkt (Minimum / Tiefstwert) und Uhrzeit der Messung23:30:008.50 °C
Anzahl der automatisch eingelesenen Messwerte 96

Detaillierte Wetter- und Klima- Messwerte für den 14.09.2015 in Holzhau im Erzgebirge (630m ü.NN)
ZeitTemperaturLuftdruckRel. LuftfeuchteWindWindrichtungWindchillTaupunktNiederschlag l/m²
23:45:0010.80 °C1006.40 hPa88.00 %8.90 °C 
23:30:0010.40 °C1006.50 hPa88.00 %8.50 °C 
23:15:0010.70 °C1006.30 hPa87.00 %8.60 °C 
23:00:0010.90 °C1006.10 hPa87.00 %8.80 °C 
22:45:0010.80 °C1006.40 hPa86.00 %8.60 °C 
22:30:0011.30 °C1006.30 hPa86.00 %9.00 °C 
22:15:0011.90 °C1006.10 hPa86.00 %9.60 °C 
22:00:0012.80 °C1006.00 hPa86.00 %10.50 °C 
21:45:0013.20 °C1006.30 hPa87.00 %11.10 °C 
21:30:0013.10 °C1006.70 hPa87.00 %11.00 °C 
21:15:0013.10 °C1006.30 hPa88.00 %11.20 °C 
21:00:0012.90 °C1006.10 hPa88.00 %11.00 °C 
20:45:0013.10 °C1005.90 hPa87.00 %11.00 °C 
20:30:0013.30 °C1005.80 hPa87.00 %11.20 °C 
20:15:0013.40 °C1005.40 hPa87.00 %11.30 °C 
20:00:0013.60 °C1005.20 hPa87.00 %11.50 °C 
19:45:0013.90 °C1005.00 hPa86.00 %11.60 °C 
19:30:0014.10 °C1004.90 hPa86.00 %4.32 km/hS14.10 °C11.80 °C 
19:15:0014.40 °C1004.50 hPa85.00 %11.90 °C 
19:00:0014.60 °C1004.70 hPa84.00 %11.90 °C 
18:45:0014.90 °C1004.50 hPa83.00 %12.00 °C 
18:30:0015.10 °C1004.50 hPa83.00 %12.20 °C 
18:15:0015.60 °C1004.70 hPa82.00 %12.50 °C 
18:00:0015.90 °C1004.80 hPa81.00 %12.60 °C 
17:45:0016.30 °C1004.40 hPa81.00 %13.00 °C 
17:30:0016.60 °C1004.40 hPa80.00 %13.10 °C 
17:15:0017.10 °C1004.30 hPa79.00 %7.20 km/hSW17.50 °C13.40 °C 
17:00:0017.60 °C1004.40 hPa79.00 %2.88 km/hSO17.60 °C13.90 °C 
16:45:0018.00 °C1004.10 hPa81.00 %14.70 °C 
16:30:0017.50 °C1003.60 hPa82.00 %14.40 °C 
16:15:0017.70 °C1004.10 hPa84.00 %6.48 km/hSW18.30 °C15.00 °C 
16:00:0016.00 °C1004.10 hPa84.00 %13.30 °C 
15:45:0016.30 °C1004.20 hPa85.00 %13.80 °C 
15:30:0016.40 °C1004.30 hPa85.00 %13.90 °C 
15:15:0016.00 °C1004.00 hPa86.00 %13.70 °C 
15:00:0015.60 °C1004.40 hPa85.00 %13.10 °C 
14:45:0016.10 °C1003.90 hPa85.00 %6.84 km/hSW16.30 °C13.60 °C 
14:30:0016.40 °C1004.20 hPa87.00 %14.20 °C 
14:15:0015.60 °C1004.10 hPa88.00 %13.60 °C 
14:00:0014.90 °C1004.10 hPa88.00 %12.90 °C 
13:45:0014.90 °C1004.30 hPa87.00 %12.80 °C 
13:30:0014.90 °C1004.30 hPa87.00 %12.80 °C 
13:15:0014.90 °C1004.20 hPa87.00 %12.80 °C 
13:00:0014.90 °C1004.10 hPa87.00 %12.80 °C 
12:45:0014.80 °C1004.10 hPa87.00 %5.76 km/hOSO15.00 °C12.70 °C 
12:30:0014.60 °C1004.20 hPa86.00 %12.30 °C 
12:15:0014.90 °C1004.10 hPa86.00 %4.32 km/hOSO14.90 °C12.60 °C 
12:00:0015.10 °C1004.00 hPa87.00 %13.00 °C 
11:45:0014.90 °C1003.70 hPa87.00 %12.80 °C 
11:30:0014.80 °C1003.70 hPa87.00 %12.70 °C 
11:15:0014.50 °C1003.40 hPa88.00 %12.50 °C 
11:00:0014.30 °C1003.50 hPa88.00 %12.30 °C 
10:45:0014.10 °C1003.40 hPa87.00 %12.00 °C 
10:30:0013.90 °C1003.30 hPa88.00 %11.90 °C 
10:15:0013.90 °C1003.40 hPa87.00 %11.80 °C 
10:00:0013.90 °C1003.60 hPa87.00 %0.72 km/hSO13.90 °C11.80 °C 
09:45:0013.90 °C1003.40 hPa88.00 %11.90 °C 
09:30:0014.10 °C1003.30 hPa88.00 %2.52 km/hSO14.10 °C12.10 °C 
09:15:0014.30 °C1003.50 hPa88.00 %12.30 °C 
09:00:0014.00 °C1003.40 hPa89.00 %12.20 °C 
08:45:0013.90 °C1003.40 hPa89.00 %1.44 km/hOSO13.90 °C12.10 °C 
08:30:0013.80 °C1003.50 hPa90.00 %1.08 km/hOSO13.80 °C12.20 °C 
08:15:0013.80 °C1003.60 hPa90.00 %1.44 km/hOSO13.80 °C12.20 °C 
08:00:0013.30 °C1003.40 hPa91.00 %2.52 km/hSSO13.30 °C11.90 °C 
07:45:0012.70 °C1003.50 hPa91.00 %7.92 km/hONO12.20 °C11.30 °C 
07:30:0012.30 °C1003.90 hPa91.00 %10.90 °C 
07:15:0012.10 °C1004.10 hPa90.00 %10.50 °C 
07:00:0011.90 °C1003.80 hPa90.00 %10.30 °C 
06:45:0012.10 °C1003.70 hPa90.00 %10.50 °C 
06:30:0012.10 °C1003.90 hPa90.00 %10.50 °C 
06:15:0012.30 °C1003.60 hPa90.00 %10.70 °C 
06:00:0012.40 °C1003.80 hPa90.00 %10.80 °C 
05:45:0012.40 °C1004.00 hPa90.00 %10.80 °C 
05:30:0012.50 °C1004.20 hPa89.00 %10.70 °C 
05:15:0012.60 °C1004.20 hPa89.00 %10.80 °C 
05:00:0012.80 °C1004.30 hPa89.00 %11.00 °C 
04:45:0012.90 °C1004.50 hPa88.00 %2.16 km/hOSO12.90 °C11.00 °C 
04:30:0012.90 °C1004.50 hPa88.00 %2.88 km/hSO12.90 °C11.00 °C 
04:15:0013.10 °C1004.50 hPa88.00 %8.64 km/hOSO12.50 °C11.20 °C 
04:00:0013.20 °C1004.50 hPa88.00 %11.30 °C 
03:45:0013.30 °C1004.60 hPa87.00 %6.48 km/hSO13.20 °C11.20 °C 
03:30:0013.60 °C1005.00 hPa87.00 %6.84 km/hSO13.40 °C11.50 °C 
03:15:0013.80 °C1005.10 hPa86.00 %3.96 km/hOSO13.80 °C11.50 °C 
03:00:0014.10 °C1005.20 hPa86.00 %11.80 °C 
02:45:0014.20 °C1005.20 hPa86.00 %11.90 °C 
02:30:0014.30 °C1005.40 hPa85.00 %11.80 °C 
02:15:0014.40 °C1005.70 hPa85.00 %6.84 km/hOSO14.40 °C11.90 °C 
02:00:0014.50 °C1005.80 hPa85.00 %9.00 km/hSSO14.10 °C12.00 °C 
01:45:0014.40 °C1005.90 hPa84.00 %4.68 km/hSO14.40 °C11.70 °C 
01:30:0014.60 °C1006.00 hPa84.00 %4.32 km/hSO14.60 °C11.90 °C 
01:15:0014.70 °C1006.10 hPa84.00 %2.16 km/hOSO14.70 °C12.00 °C 
01:00:0014.70 °C1006.20 hPa84.00 %3.24 km/hOSO14.70 °C12.00 °C 
00:45:0014.60 °C1006.30 hPa83.00 %11.70 °C 
00:30:0014.60 °C1006.70 hPa83.00 %11.70 °C 
00:15:0014.60 °C1006.30 hPa83.00 %11.70 °C 
00:00:0014.60 °C1006.80 hPa82.00 %5.04 km/hOSO15.00 °C11.60 °C 

Permanenter Link zu dieser Seite: Wetter im Erzgebirge am 14.09.2015
Performance-Info: Die Erstellung der Seite / Statistik(en) / Tabelle(n) erforderte 5 Datenbankserver-Abfrage(n) und dauerte 124 Millisekunden. (Dieser Messwert ist von der Gesamt-Auslastung des Servers abhängig.)
Erzgebirge - Wetter | Erzgebirge - Wetter (Mobilgeräte) | Komplette Klimadatenbank